createdAt,value
2017-07-03T00:00:59.614Z,0
2017-07-03T00:01:59.907Z,0
2017-07-03T00:02:59.312Z,0
2017-07-03T00:03:59.571Z,0
2017-07-03T00:04:59.552Z,0
2017-07-03T00:05:59.857Z,0
2017-07-03T00:06:59.837Z,0
2017-07-03T00:07:59.519Z,0
2017-07-03T00:08:59.813Z,0
2017-07-03T00:09:59.802Z,0
2017-07-03T00:10:59.520Z,0
2017-07-03T00:11:59.146Z,0
2017-07-03T00:12:59.756Z,0
2017-07-03T00:13:59.744Z,0
2017-07-03T00:14:59.733Z,0
2017-07-03T00:15:59.086Z,0
2017-07-03T00:16:59.071Z,0
2017-07-03T00:17:59.688Z,0
2017-07-03T00:18:59.056Z,0
2017-07-03T00:19:59.352Z,0
2017-07-03T00:20:59.050Z,0
2017-07-03T00:21:59.333Z,0
2017-07-03T00:22:59.624Z,0
2017-07-03T00:23:59.609Z,0
2017-07-03T00:24:59.915Z,0
2017-07-03T00:25:59.265Z,0
2017-07-03T00:26:59.567Z,0
2017-07-03T00:27:59.554Z,0
2017-07-03T00:28:59.227Z,0
2017-07-03T00:29:59.211Z,0
2017-07-03T00:30:59.514Z,0
2017-07-03T00:31:59.179Z,0
2017-07-03T00:32:59.173Z,0
2017-07-03T00:33:59.156Z,0
2017-07-03T00:34:59.466Z,0
2017-07-03T00:35:59.448Z,0
2017-07-03T00:36:59.744Z,0
2017-07-03T00:37:59.107Z,0
2017-07-03T00:38:59.407Z,0
2017-07-03T00:39:59.077Z,0
2017-07-03T00:40:59.374Z,0
2017-07-03T00:41:59.359Z,0
2017-07-03T00:42:59.041Z,0
2017-07-03T00:43:59.049Z,0
2017-07-03T00:44:59.322Z,0
2017-07-03T00:45:58.682Z,0
2017-07-03T00:46:59.298Z,0
2017-07-03T00:47:59.007Z,0
2017-07-03T00:48:58.951Z,0
2017-07-03T00:49:59.261Z,0
2017-07-03T00:50:59.565Z,0
2017-07-03T00:51:59.233Z,0
2017-07-03T00:52:58.904Z,0
2017-07-03T00:53:58.895Z,0
2017-07-03T00:54:59.197Z,0
2017-07-03T00:55:59.166Z,0
2017-07-03T00:56:59.479Z,0
2017-07-03T00:57:59.487Z,0
2017-07-03T00:58:58.501Z,0
2017-07-03T00:59:59.119Z,0
2017-07-03T01:00:58.785Z,0
2017-07-03T01:01:59.083Z,0
2017-07-03T01:02:58.763Z,0
2017-07-03T01:03:59.080Z,0
2017-07-03T01:04:59.049Z,0
2017-07-03T01:05:59.028Z,0
2017-07-03T01:06:58.711Z,0
2017-07-03T01:07:58.380Z,0
2017-07-03T01:08:58.680Z,0
2017-07-03T01:09:58.996Z,0
2017-07-03T01:10:58.645Z,0
2017-07-03T01:11:58.949Z,0
2017-07-03T01:12:58.623Z,0
2017-07-03T01:13:58.612Z,0
2017-07-03T01:14:58.288Z,0
2017-07-03T01:15:58.574Z,0
2017-07-03T01:16:58.562Z,0
2017-07-03T01:17:58.859Z,0
2017-07-03T01:18:59.163Z,0
2017-07-03T01:19:58.213Z,0
2017-07-03T01:20:58.553Z,0
2017-07-03T01:21:58.491Z,0
2017-07-03T01:22:58.787Z,0
2017-07-03T01:23:59.092Z,0
2017-07-03T01:24:58.137Z,0
2017-07-03T01:25:58.490Z,0
2017-07-03T01:26:59.040Z,0
2017-07-03T01:27:59.030Z,0
2017-07-03T01:28:58.075Z,0
2017-07-03T01:29:59.004Z,0
2017-07-03T01:30:58.674Z,0
2017-07-03T01:31:58.973Z,0
2017-07-03T01:32:58.330Z,0
2017-07-03T01:33:58.637Z,0
2017-07-03T01:34:58.305Z,0
2017-07-03T01:35:58.293Z,0
2017-07-03T01:36:58.274Z,0
2017-07-03T01:37:58.265Z,0
2017-07-03T01:38:57.938Z,0
2017-07-03T01:39:58.233Z,0
2017-07-03T01:40:58.542Z,0
2017-07-03T01:41:57.885Z,0
2017-07-03T01:42:58.506Z,0
2017-07-03T01:43:58.168Z,0
2017-07-03T01:44:57.846Z,0
2017-07-03T01:45:58.511Z,0
2017-07-03T01:46:58.441Z,0
2017-07-03T01:47:58.436Z,0
2017-07-03T01:48:57.802Z,0
2017-07-03T01:49:58.092Z,0
2017-07-03T01:50:58.273Z,0
2017-07-03T01:51:58.060Z,0
2017-07-03T01:52:58.675Z,0
2017-07-03T01:53:57.720Z,0
2017-07-03T01:54:57.700Z,0
2017-07-03T01:55:57.382Z,0
2017-07-03T01:56:58.298Z,0
2017-07-03T01:57:58.591Z,0
2017-07-03T01:58:57.958Z,0
2017-07-03T01:59:58.267Z,0
2017-07-03T02:00:57.947Z,0
2017-07-03T02:01:57.918Z,0
2017-07-03T02:02:58.222Z,0
2017-07-03T02:03:57.581Z,0
2017-07-03T02:04:57.879Z,0
2017-07-03T02:05:58.485Z,0
2017-07-03T02:06:58.157Z,0
2017-07-03T02:07:58.149Z,0
2017-07-03T02:08:58.124Z,0
2017-07-03T02:09:58.459Z,0
2017-07-03T02:10:57.791Z,0
2017-07-03T02:11:57.463Z,0
2017-07-03T02:12:57.447Z,0
2017-07-03T02:13:58.058Z,0
2017-07-03T02:14:58.043Z,0
2017-07-03T02:15:58.026Z,0
2017-07-03T02:16:58.059Z,0
2017-07-03T02:17:57.996Z,0
2017-07-03T02:18:58.299Z,0
2017-07-03T02:19:57.653Z,0
2017-07-03T02:20:57.953Z,0
2017-07-03T02:21:57.621Z,0
2017-07-03T02:22:58.242Z,0
2017-07-03T02:23:57.950Z,0
2017-07-03T02:24:57.890Z,0
2017-07-03T02:25:57.558Z,0
2017-07-03T02:26:57.865Z,0
2017-07-03T02:27:57.224Z,0
2017-07-03T02:28:57.525Z,0
2017-07-03T02:29:56.882Z,0
2017-07-03T02:30:57.803Z,0
2017-07-03T02:31:57.796Z,0
2017-07-03T02:32:57.773Z,0
2017-07-03T02:33:57.450Z,0
2017-07-03T02:34:57.115Z,0
2017-07-03T02:35:57.727Z,0
2017-07-03T02:36:58.029Z,0
2017-07-03T02:37:58.010Z,0
2017-07-03T02:38:57.683Z,0
2017-07-03T02:39:57.674Z,0
2017-07-03T02:40:57.647Z,0
2017-07-03T02:41:57.325Z,0
2017-07-03T02:42:57.622Z,0
2017-07-03T02:43:57.617Z,0
2017-07-03T02:44:56.971Z,0
2017-07-03T02:45:57.582Z,0
2017-07-03T02:46:57.900Z,0
2017-07-03T02:47:57.552Z,0
2017-07-03T02:48:57.217Z,0
2017-07-03T02:49:56.896Z,0
2017-07-03T02:50:57.498Z,0
2017-07-03T02:51:57.195Z,0
2017-07-03T02:52:57.523Z,0
2017-07-03T02:53:57.150Z,0
2017-07-03T02:54:57.130Z,0
2017-07-03T02:55:57.422Z,0
2017-07-03T02:56:57.102Z,0
2017-07-03T02:57:57.093Z,0
2017-07-03T02:58:56.769Z,0
2017-07-03T02:59:57.067Z,0
2017-07-03T03:00:57.670Z,0
2017-07-03T03:01:57.349Z,0
2017-07-03T03:02:57.011Z,0
2017-07-03T03:03:56.996Z,0
2017-07-03T03:04:57.295Z,0
2017-07-03T03:05:56.669Z,0
2017-07-03T03:06:57.268Z,0
2017-07-03T03:07:56.935Z,0
2017-07-03T03:08:57.233Z,0
2017-07-03T03:09:57.534Z,0
2017-07-03T03:10:56.898Z,0
2017-07-03T03:11:57.193Z,0
2017-07-03T03:12:56.547Z,0
2017-07-03T03:13:56.854Z,0
2017-07-03T03:14:57.148Z,0
2017-07-03T03:15:56.184Z,0
2017-07-03T03:16:57.423Z,0
2017-07-03T03:17:57.101Z,0
2017-07-03T03:18:56.773Z,0
2017-07-03T03:19:56.433Z,5
2017-07-03T03:20:57.049Z,5
2017-07-03T03:21:57.032Z,5
2017-07-03T03:22:56.713Z,5
2017-07-03T03:23:56.071Z,5
2017-07-03T03:24:56.994Z,5
2017-07-03T03:25:57.287Z,5
2017-07-03T03:26:56.957Z,5
2017-07-03T03:27:56.948Z,5
2017-07-03T03:28:56.937Z,5
2017-07-03T03:29:56.307Z,5
2017-07-03T03:30:57.214Z,5
2017-07-03T03:31:56.888Z,10
2017-07-03T03:32:57.182Z,10
2017-07-03T03:33:56.850Z,10
2017-07-03T03:34:56.524Z,10
2017-07-03T03:35:56.504Z,10
2017-07-03T03:36:56.495Z,10
2017-07-03T03:37:56.794Z,10
2017-07-03T03:38:56.466Z,10
2017-07-03T03:39:56.769Z,10
2017-07-03T03:40:56.436Z,10
2017-07-03T03:41:56.738Z,15
2017-07-03T03:42:56.406Z,15
2017-07-03T03:43:56.076Z,15
2017-07-03T03:44:56.707Z,15
2017-07-03T03:45:56.667Z,15
2017-07-03T03:46:56.652Z,15
2017-07-03T03:47:55.750Z,15
2017-07-03T03:48:56.000Z,15
2017-07-03T03:49:56.297Z,15
2017-07-03T03:50:56.489Z,15
2017-07-03T03:51:56.277Z,20
2017-07-03T03:52:56.254Z,20
2017-07-03T03:53:56.236Z,20
2017-07-03T03:54:56.225Z,20
2017-07-03T03:55:56.520Z,20
2017-07-03T03:56:56.603Z,20
2017-07-03T03:57:56.176Z,20
2017-07-03T03:58:56.157Z,20
2017-07-03T03:59:56.785Z,25
2017-07-03T04:00:56.447Z,25
2017-07-03T04:01:56.116Z,25
2017-07-03T04:02:55.803Z,25
2017-07-03T04:03:56.088Z,25
2017-07-03T04:04:56.388Z,25
2017-07-03T04:05:56.685Z,25
2017-07-03T04:06:56.352Z,25
2017-07-03T04:07:56.345Z,25
2017-07-03T04:08:56.637Z,25
2017-07-03T04:09:56.306Z,30
2017-07-03T04:10:55.990Z,30
2017-07-03T04:11:55.968Z,30
2017-07-03T04:12:56.265Z,30
2017-07-03T04:13:55.946Z,30
2017-07-03T04:14:56.234Z,30
2017-07-03T04:15:56.218Z,30
2017-07-03T04:16:56.251Z,30
2017-07-03T04:17:55.876Z,30
2017-07-03T04:18:56.493Z,30
2017-07-03T04:19:55.230Z,30
2017-07-03T04:20:56.461Z,35
2017-07-03T04:21:55.815Z,35
2017-07-03T04:22:56.110Z,35
2017-07-03T04:23:55.793Z,35
2017-07-03T04:24:55.489Z,35
2017-07-03T04:25:56.073Z,35
2017-07-03T04:26:56.367Z,35
2017-07-03T04:27:56.353Z,35
2017-07-03T04:28:55.711Z,35
2017-07-03T04:29:56.002Z,35
2017-07-03T04:30:55.684Z,35
2017-07-03T04:31:55.666Z,35
2017-07-03T04:32:56.020Z,35
2017-07-03T04:33:55.960Z,40
2017-07-03T04:34:55.623Z,40
2017-07-03T04:35:55.298Z,40
2017-07-03T04:36:55.908Z,40
2017-07-03T04:37:56.211Z,40
2017-07-03T04:38:56.199Z,40
2017-07-03T04:39:55.558Z,40
2017-07-03T04:40:55.222Z,40
2017-07-03T04:41:55.837Z,40
2017-07-03T04:42:55.501Z,40
2017-07-03T04:43:55.814Z,40
2017-07-03T04:44:55.478Z,40
2017-07-03T04:45:55.777Z,40
2017-07-03T04:46:56.081Z,40
2017-07-03T04:47:56.071Z,40
2017-07-03T04:48:55.112Z,45
2017-07-03T04:49:55.413Z,45
2017-07-03T04:50:56.024Z,45
2017-07-03T04:51:55.385Z,45
2017-07-03T04:52:55.374Z,45
2017-07-03T04:53:56.086Z,45
2017-07-03T04:54:55.028Z,45
2017-07-03T04:55:55.014Z,45
2017-07-03T04:56:55.300Z,45
2017-07-03T04:57:55.604Z,45
2017-07-03T04:58:55.902Z,45
2017-07-03T04:59:55.889Z,45
2017-07-03T05:00:54.942Z,45
2017-07-03T05:01:55.545Z,45
2017-07-03T05:02:54.918Z,45
2017-07-03T05:03:55.524Z,45
2017-07-03T05:04:55.501Z,50
2017-07-03T05:05:55.498Z,50
2017-07-03T05:06:54.878Z,50
2017-07-03T05:07:55.471Z,50
2017-07-03T05:08:55.456Z,50
2017-07-03T05:09:55.439Z,50
2017-07-03T05:10:55.426Z,50
2017-07-03T05:11:54.780Z,50
2017-07-03T05:12:55.392Z,50
2017-07-03T05:13:55.687Z,50
2017-07-03T05:14:55.361Z,50
2017-07-03T05:15:55.038Z,50
2017-07-03T05:16:55.331Z,50
2017-07-03T05:17:55.634Z,50
2017-07-03T05:18:55.623Z,50
2017-07-03T05:19:54.987Z,55
2017-07-03T05:20:55.335Z,55
2017-07-03T05:21:55.262Z,55
2017-07-03T05:22:55.560Z,55
2017-07-03T05:23:55.272Z,55
2017-07-03T05:24:54.916Z,55
2017-07-03T05:25:55.206Z,55
2017-07-03T05:26:55.510Z,55
2017-07-03T05:27:55.184Z,55
2017-07-03T05:28:55.182Z,55
2017-07-03T05:29:54.855Z,55
2017-07-03T05:30:54.835Z,55
2017-07-03T05:31:55.146Z,55
2017-07-03T05:32:55.119Z,55
2017-07-03T05:33:54.792Z,55
2017-07-03T05:34:55.089Z,55
2017-07-03T05:35:54.759Z,55
2017-07-03T05:36:54.435Z,55
2017-07-03T05:37:55.049Z,60
2017-07-03T05:38:55.390Z,60
2017-07-03T05:39:54.388Z,60
2017-07-03T05:40:55.012Z,60
2017-07-03T05:41:55.300Z,60
2017-07-03T05:42:54.668Z,60
2017-07-03T05:43:55.277Z,60
2017-07-03T05:44:55.255Z,60
2017-07-03T05:45:55.249Z,60
2017-07-03T05:46:55.246Z,60
2017-07-03T05:47:54.923Z,60
2017-07-03T05:48:55.215Z,60
2017-07-03T05:49:54.880Z,60
2017-07-03T05:50:54.762Z,60
2017-07-03T05:51:54.229Z,60
2017-07-03T05:52:54.843Z,60
2017-07-03T05:53:54.546Z,60
2017-07-03T05:54:55.133Z,60
2017-07-03T05:55:54.491Z,60
2017-07-03T05:56:54.795Z,60
2017-07-03T05:57:54.463Z,60
2017-07-03T05:58:54.456Z,60
2017-07-03T05:59:54.754Z,60
2017-07-03T06:00:53.796Z,60
2017-07-03T06:01:54.122Z,60
2017-07-03T06:02:54.080Z,60
2017-07-03T06:03:54.708Z,60
2017-07-03T06:04:54.374Z,60
2017-07-03T06:05:54.359Z,60
2017-07-03T06:06:54.035Z,60
2017-07-03T06:07:54.022Z,60
2017-07-03T06:08:54.697Z,60
2017-07-03T06:09:54.300Z,65
2017-07-03T06:10:54.617Z,65
2017-07-03T06:11:54.281Z,65
2017-07-03T06:12:53.956Z,65
2017-07-03T06:13:53.999Z,65
2017-07-03T06:14:53.935Z,65
2017-07-03T06:15:54.231Z,65
2017-07-03T06:16:54.837Z,235
2017-07-03T06:17:54.827Z,560
2017-07-03T06:18:54.194Z,780
2017-07-03T06:19:54.180Z,805
2017-07-03T06:20:54.481Z,480
2017-07-03T06:21:54.151Z,220
2017-07-03T06:22:54.144Z,400
2017-07-03T06:23:54.137Z,560
2017-07-03T06:24:54.123Z,535
2017-07-03T06:25:54.163Z,400
2017-07-03T06:26:54.404Z,250
2017-07-03T06:27:54.085Z,285
2017-07-03T06:28:54.092Z,75
2017-07-03T06:29:53.754Z,75
2017-07-03T06:30:53.737Z,70
2017-07-03T06:31:54.354Z,75
2017-07-03T06:32:54.039Z,75
2017-07-03T06:33:53.764Z,75
2017-07-03T06:34:53.386Z,75
2017-07-03T06:35:54.320Z,80
2017-07-03T06:36:54.345Z,75
2017-07-03T06:37:54.602Z,75
2017-07-03T06:38:54.318Z,75
2017-07-03T06:39:54.271Z,75
2017-07-03T06:40:53.945Z,75
2017-07-03T06:41:53.619Z,75
2017-07-03T06:42:53.928Z,80
2017-07-03T06:43:53.386Z,80
2017-07-03T06:44:53.903Z,80
2017-07-03T06:45:54.519Z,80
2017-07-03T06:46:54.556Z,80
2017-07-03T06:47:54.178Z,80
2017-07-03T06:48:53.537Z,265
2017-07-03T06:49:54.464Z,665
2017-07-03T06:50:53.835Z,965
2017-07-03T06:51:53.857Z,1040
2017-07-03T06:52:53.802Z,1120
2017-07-03T06:53:53.492Z,1105
2017-07-03T06:54:54.527Z,1060
2017-07-03T06:55:54.401Z,1035
2017-07-03T06:56:53.448Z,1080
2017-07-03T06:57:53.761Z,810
2017-07-03T06:58:53.748Z,400
2017-07-03T06:59:53.736Z,135
2017-07-03T07:00:54.042Z,110
2017-07-03T07:01:53.723Z,105
2017-07-03T07:02:53.735Z,100
2017-07-03T07:03:53.701Z,95
2017-07-03T07:04:54.001Z,95
2017-07-03T07:05:53.994Z,95
2017-07-03T07:06:53.670Z,95
2017-07-03T07:07:54.286Z,95
2017-07-03T07:08:53.346Z,95
2017-07-03T07:09:53.952Z,115
2017-07-03T07:10:54.297Z,215
2017-07-03T07:11:53.943Z,150
2017-07-03T07:12:53.606Z,200
2017-07-03T07:13:53.907Z,570
2017-07-03T07:14:53.908Z,935
2017-07-03T07:15:53.583Z,1165
2017-07-03T07:16:53.887Z,1200
2017-07-03T07:17:53.565Z,1165
2017-07-03T07:18:53.558Z,1165
2017-07-03T07:19:53.862Z,1215
2017-07-03T07:20:53.541Z,1245
2017-07-03T07:21:53.537Z,1260
2017-07-03T07:22:53.835Z,1270
2017-07-03T07:23:53.829Z,1275
2017-07-03T07:24:53.820Z,1325
2017-07-03T07:25:53.811Z,1390
2017-07-03T07:26:53.492Z,1135
2017-07-03T07:27:53.486Z,1140
2017-07-03T07:28:53.811Z,1310
2017-07-03T07:29:53.808Z,1235
2017-07-03T07:30:54.128Z,1150
2017-07-03T07:31:53.781Z,1275
2017-07-03T07:32:53.152Z,1375
2017-07-03T07:33:53.457Z,1400
2017-07-03T07:34:53.769Z,1385
2017-07-03T07:35:53.444Z,1405
2017-07-03T07:36:53.493Z,1410
2017-07-03T07:37:53.439Z,1400
2017-07-03T07:38:53.745Z,1405
2017-07-03T07:39:53.781Z,1435
2017-07-03T07:40:53.424Z,1450
2017-07-03T07:41:53.419Z,1440
2017-07-03T07:42:53.482Z,1380
2017-07-03T07:43:53.733Z,1390
2017-07-03T07:44:53.719Z,1430
2017-07-03T07:45:53.724Z,1485
2017-07-03T07:46:53.714Z,1495
2017-07-03T07:47:53.399Z,1515
2017-07-03T07:48:54.034Z,1500
2017-07-03T07:49:52.818Z,1495
2017-07-03T07:50:54.224Z,1315
2017-07-03T07:51:53.074Z,1520
2017-07-03T07:52:54.026Z,1550
2017-07-03T07:53:53.390Z,1605
2017-07-03T07:54:54.013Z,1615
2017-07-03T07:55:53.693Z,1610
2017-07-03T07:56:53.686Z,1580
2017-07-03T07:57:53.384Z,1575
2017-07-03T07:58:53.685Z,1600
2017-07-03T07:59:53.058Z,1590
2017-07-03T08:00:53.387Z,1575
2017-07-03T08:01:53.373Z,1570
2017-07-03T08:02:53.677Z,1585
2017-07-03T08:03:53.055Z,1575
2017-07-03T08:04:53.361Z,1595
2017-07-03T08:05:53.679Z,1560
2017-07-03T08:06:53.673Z,1530
2017-07-03T08:07:53.359Z,1530
2017-07-03T08:08:53.983Z,1530
2017-07-03T08:09:53.106Z,1595
2017-07-03T08:10:53.348Z,1610
2017-07-03T08:11:53.664Z,1645
2017-07-03T08:12:53.347Z,1605
2017-07-03T08:13:53.351Z,1645
2017-07-03T08:14:53.349Z,1665
2017-07-03T08:15:53.673Z,1635
2017-07-03T08:16:53.025Z,1625
2017-07-03T08:17:53.335Z,1570
2017-07-03T08:18:53.654Z,1670
2017-07-03T08:19:53.340Z,1695
2017-07-03T08:20:53.646Z,1705
2017-07-03T08:21:53.645Z,1695
2017-07-03T08:22:52.772Z,1700
2017-07-03T08:23:53.330Z,1670
2017-07-03T08:24:53.328Z,1675
2017-07-03T08:25:53.341Z,1730
2017-07-03T08:26:53.320Z,1705
2017-07-03T08:27:53.638Z,1805
2017-07-03T08:28:53.636Z,1830
2017-07-03T08:29:53.328Z,1790
2017-07-03T08:30:53.649Z,1705
2017-07-03T08:31:53.633Z,1790
2017-07-03T08:32:53.634Z,1795
2017-07-03T08:33:53.945Z,1755
2017-07-03T08:34:53.631Z,1780
2017-07-03T08:35:53.629Z,1780
2017-07-03T08:36:53.322Z,1765
2017-07-03T08:37:53.014Z,1745
2017-07-03T08:38:53.319Z,1710
2017-07-03T08:39:53.319Z,1795
2017-07-03T08:40:53.324Z,1810
2017-07-03T08:41:53.946Z,1830
2017-07-03T08:42:53.319Z,1845
2017-07-03T08:43:53.948Z,1905
2017-07-03T08:44:53.635Z,1835
2017-07-03T08:45:52.696Z,1900
2017-07-03T08:46:52.999Z,1905
2017-07-03T08:47:53.635Z,1915
2017-07-03T08:48:53.644Z,1720
2017-07-03T08:49:53.951Z,795
2017-07-03T08:50:53.649Z,655
2017-07-03T08:51:53.646Z,575
2017-07-03T08:52:53.638Z,425
2017-07-03T08:53:53.014Z,320
2017-07-03T08:54:53.634Z,305
2017-07-03T08:55:53.320Z,380
2017-07-03T08:56:53.635Z,295
2017-07-03T08:57:53.951Z,450
2017-07-03T08:58:53.322Z,745
2017-07-03T08:59:53.636Z,760
2017-07-03T09:00:53.986Z,635
2017-07-03T09:01:53.310Z,520
2017-07-03T09:02:53.611Z,235
2017-07-03T09:03:53.620Z,185
2017-07-03T09:04:53.607Z,480
2017-07-03T09:05:53.633Z,405
2017-07-03T09:06:53.304Z,200
2017-07-03T09:07:52.993Z,580
2017-07-03T09:08:52.969Z,200
2017-07-03T09:09:53.584Z,610
2017-07-03T09:10:53.635Z,400
2017-07-03T09:11:53.261Z,295
2017-07-03T09:12:52.946Z,565
2017-07-03T09:13:53.262Z,630
2017-07-03T09:14:53.885Z,1655
2017-07-03T09:15:53.872Z,1865
2017-07-03T09:16:53.249Z,1910
2017-07-03T09:17:53.563Z,1880
2017-07-03T09:18:52.979Z,1880
2017-07-03T09:19:53.238Z,2010
2017-07-03T09:20:53.549Z,2000
2017-07-03T09:21:53.851Z,2060
2017-07-03T09:22:53.272Z,2050
2017-07-03T09:23:53.539Z,2100
2017-07-03T09:24:53.223Z,2055
2017-07-03T09:25:53.528Z,2020
2017-07-03T09:26:53.844Z,1995
2017-07-03T09:27:53.541Z,1945
2017-07-03T09:28:53.532Z,1890
2017-07-03T09:29:52.954Z,1935
2017-07-03T09:30:53.212Z,1980
2017-07-03T09:31:53.528Z,2060
2017-07-03T09:32:53.840Z,2050
2017-07-03T09:33:53.534Z,2060
2017-07-03T09:34:53.582Z,2115
2017-07-03T09:35:53.220Z,2160
2017-07-03T09:36:53.524Z,2170
2017-07-03T09:37:52.596Z,2170
2017-07-03T09:38:53.538Z,2180
2017-07-03T09:39:53.580Z,2280
2017-07-03T09:40:53.842Z,1935
2017-07-03T09:41:53.530Z,2195
2017-07-03T09:42:53.600Z,1845
2017-07-03T09:43:53.538Z,930
2017-07-03T09:44:53.225Z,2220
2017-07-03T09:45:53.528Z,2225
2017-07-03T09:46:53.223Z,2255
2017-07-03T09:47:52.930Z,1245
2017-07-03T09:48:52.918Z,2170
2017-07-03T09:49:53.541Z,1875
2017-07-03T09:50:53.346Z,1495
2017-07-03T09:51:53.234Z,1130
2017-07-03T09:52:53.236Z,1795
2017-07-03T09:53:53.543Z,1065
2017-07-03T09:54:53.555Z,1875
2017-07-03T09:55:53.559Z,2070
2017-07-03T09:56:53.547Z,2140
2017-07-03T09:57:52.931Z,2105
2017-07-03T09:58:53.555Z,2075
2017-07-03T09:59:53.877Z,2160
2017-07-03T10:00:53.883Z,2145
2017-07-03T10:01:53.874Z,2195
2017-07-03T10:02:53.249Z,2215
2017-07-03T10:03:53.251Z,2250
2017-07-03T10:04:53.568Z,2225
2017-07-03T10:05:53.884Z,2180
2017-07-03T10:06:53.890Z,2145
2017-07-03T10:07:53.023Z,2140
2017-07-03T10:08:53.265Z,2215
2017-07-03T10:09:53.264Z,2160
2017-07-03T10:10:53.582Z,2345
2017-07-03T10:11:53.269Z,2360
2017-07-03T10:12:53.601Z,2135
2017-07-03T10:13:53.591Z,1515
2017-07-03T10:14:53.278Z,1260
2017-07-03T10:15:52.971Z,1785
2017-07-03T10:16:53.597Z,2260
2017-07-03T10:17:53.914Z,2075
2017-07-03T10:18:53.323Z,2190
2017-07-03T10:19:53.598Z,2165
2017-07-03T10:20:53.918Z,2155
2017-07-03T10:21:52.980Z,2160
2017-07-03T10:22:53.303Z,2185
2017-07-03T10:23:53.972Z,2195
2017-07-03T10:24:53.305Z,2235
2017-07-03T10:25:53.625Z,2245
2017-07-03T10:26:53.622Z,2315
2017-07-03T10:27:53.317Z,2290
2017-07-03T10:28:53.639Z,2265
2017-07-03T10:29:53.323Z,2240
2017-07-03T10:30:52.701Z,2215
2017-07-03T10:31:53.018Z,2250
2017-07-03T10:32:53.322Z,2335
2017-07-03T10:33:53.979Z,2300
2017-07-03T10:34:53.025Z,2175
2017-07-03T10:35:53.021Z,2270
2017-07-03T10:36:53.695Z,2310
2017-07-03T10:37:53.668Z,2235
2017-07-03T10:38:53.665Z,2245
2017-07-03T10:39:53.030Z,2220
2017-07-03T10:40:53.984Z,2075
2017-07-03T10:41:53.355Z,2215
2017-07-03T10:42:53.357Z,2200
2017-07-03T10:43:53.362Z,2185
2017-07-03T10:44:53.374Z,2185
2017-07-03T10:45:53.682Z,2250
2017-07-03T10:46:53.392Z,350
2017-07-03T10:47:53.376Z,2205
2017-07-03T10:48:54.060Z,2250
2017-07-03T10:49:53.693Z,2200
2017-07-03T10:50:53.384Z,2170
2017-07-03T10:51:53.696Z,2145
2017-07-03T10:52:53.393Z,2130
2017-07-03T10:53:53.717Z,2170
2017-07-03T10:54:53.403Z,2190
2017-07-03T10:55:53.088Z,2250
2017-07-03T10:56:53.714Z,2225
2017-07-03T10:57:53.416Z,2235
2017-07-03T10:58:53.099Z,2195
2017-07-03T10:59:54.048Z,2185
2017-07-03T11:00:54.084Z,2185
2017-07-03T11:01:53.749Z,2235
2017-07-03T11:02:53.116Z,2260
2017-07-03T11:03:54.049Z,2285
2017-07-03T11:04:53.433Z,2280
2017-07-03T11:05:52.814Z,2240
2017-07-03T11:06:53.762Z,2240
2017-07-03T11:07:53.753Z,2245
2017-07-03T11:08:53.137Z,2165
2017-07-03T11:09:53.480Z,2125
2017-07-03T11:10:53.770Z,2060
2017-07-03T11:11:53.140Z,2045
2017-07-03T11:12:53.455Z,2105
2017-07-03T11:13:53.459Z,2170
2017-07-03T11:14:53.470Z,2170
2017-07-03T11:15:53.789Z,2200
2017-07-03T11:16:53.470Z,2225
2017-07-03T11:17:53.474Z,2255
2017-07-03T11:18:53.187Z,2320
2017-07-03T11:19:53.798Z,2350
2017-07-03T11:20:53.177Z,2340
2017-07-03T11:21:53.816Z,2260
2017-07-03T11:22:53.504Z,2205
2017-07-03T11:23:54.132Z,2155
2017-07-03T11:24:53.821Z,2115
2017-07-03T11:25:53.823Z,2140
2017-07-03T11:26:53.509Z,2215
2017-07-03T11:27:53.837Z,2185
2017-07-03T11:28:53.576Z,2150
2017-07-03T11:29:53.209Z,2125
2017-07-03T11:30:53.886Z,2160
2017-07-03T11:31:53.839Z,2235
2017-07-03T11:32:53.841Z,2255
2017-07-03T11:33:53.536Z,2295
2017-07-03T11:34:53.852Z,2220
2017-07-03T11:35:53.861Z,2145
2017-07-03T11:36:53.578Z,2165
2017-07-03T11:37:53.253Z,2260
2017-07-03T11:38:53.640Z,2205
2017-07-03T11:39:53.873Z,2275
2017-07-03T11:40:53.870Z,2355
2017-07-03T11:41:53.576Z,2365
2017-07-03T11:42:53.576Z,2275
2017-07-03T11:43:53.260Z,2280
2017-07-03T11:44:53.913Z,2305
2017-07-03T11:45:53.270Z,2285
2017-07-03T11:46:53.894Z,2280
2017-07-03T11:47:53.581Z,2280
2017-07-03T11:48:53.905Z,2240
2017-07-03T11:49:52.971Z,2160
2017-07-03T11:50:53.397Z,2135
2017-07-03T11:51:53.966Z,2095
2017-07-03T11:52:53.932Z,2045
2017-07-03T11:53:53.615Z,2075
2017-07-03T11:54:53.933Z,2185
2017-07-03T11:55:53.928Z,2255
2017-07-03T11:56:53.053Z,2280
2017-07-03T11:57:53.940Z,2270
2017-07-03T11:58:53.942Z,2195
2017-07-03T11:59:53.633Z,2185
2017-07-03T12:00:53.636Z,2235
2017-07-03T12:01:53.329Z,2115
2017-07-03T12:02:53.955Z,2215
2017-07-03T12:03:53.652Z,2310
2017-07-03T12:04:54.049Z,2270
2017-07-03T12:05:53.683Z,2260
2017-07-03T12:06:53.348Z,2150
2017-07-03T12:07:53.984Z,2220
2017-07-03T12:08:53.987Z,2230
2017-07-03T12:09:53.983Z,2240
2017-07-03T12:10:53.058Z,2340
2017-07-03T12:11:53.358Z,2375
2017-07-03T12:12:54.054Z,2385
2017-07-03T12:13:53.382Z,2315
2017-07-03T12:14:54.316Z,2200
2017-07-03T12:15:53.696Z,2320
2017-07-03T12:16:54.011Z,2270
2017-07-03T12:17:54.071Z,2315
2017-07-03T12:18:54.015Z,2295
2017-07-03T12:19:53.705Z,2380
2017-07-03T12:20:54.022Z,2365
2017-07-03T12:21:53.742Z,2350
2017-07-03T12:22:53.711Z,2270
2017-07-03T12:23:53.427Z,2255
2017-07-03T12:24:53.724Z,2270
2017-07-03T12:25:54.355Z,2220
2017-07-03T12:26:53.444Z,2245
2017-07-03T12:27:53.418Z,2275
2017-07-03T12:28:54.060Z,2215
2017-07-03T12:29:54.106Z,2215
2017-07-03T12:30:54.068Z,2245
2017-07-03T12:31:53.800Z,2290
2017-07-03T12:32:53.757Z,2235
2017-07-03T12:33:54.074Z,2245
2017-07-03T12:34:53.767Z,2240
2017-07-03T12:35:54.090Z,2265
2017-07-03T12:36:53.780Z,2410
2017-07-03T12:37:53.822Z,2510
2017-07-03T12:38:53.464Z,2270
2017-07-03T12:39:53.477Z,980
2017-07-03T12:40:54.106Z,1290
2017-07-03T12:41:54.146Z,1345
2017-07-03T12:42:54.219Z,1020
2017-07-03T12:43:54.439Z,1295
2017-07-03T12:44:53.808Z,1560
2017-07-03T12:45:53.497Z,2040
2017-07-03T12:46:53.499Z,1575
2017-07-03T12:47:54.135Z,1380
2017-07-03T12:48:53.505Z,1010
2017-07-03T12:49:53.507Z,935
2017-07-03T12:50:53.506Z,965
2017-07-03T12:51:53.834Z,910
2017-07-03T12:52:53.870Z,745
2017-07-03T12:53:53.825Z,680
2017-07-03T12:54:54.150Z,800
2017-07-03T12:55:54.190Z,920
2017-07-03T12:56:54.153Z,1415
2017-07-03T12:57:54.199Z,1220
2017-07-03T12:58:54.166Z,1970
2017-07-03T12:59:53.859Z,2075
2017-07-03T13:00:53.904Z,1555
2017-07-03T13:01:53.887Z,2360
2017-07-03T13:02:53.532Z,965
2017-07-03T13:03:53.536Z,590
2017-07-03T13:04:53.551Z,630
2017-07-03T13:05:53.548Z,1440
2017-07-03T13:06:53.863Z,1120
2017-07-03T13:07:54.168Z,850
2017-07-03T13:08:54.504Z,755
2017-07-03T13:09:53.540Z,1835
2017-07-03T13:10:54.218Z,1370
2017-07-03T13:11:54.171Z,1110
2017-07-03T13:12:53.858Z,980
2017-07-03T13:13:54.515Z,700
2017-07-03T13:14:53.857Z,545
2017-07-03T13:15:54.179Z,565
2017-07-03T13:16:53.868Z,430
2017-07-03T13:17:54.202Z,395
2017-07-03T13:18:53.861Z,370
2017-07-03T13:19:53.581Z,335
2017-07-03T13:20:54.497Z,305
2017-07-03T13:21:54.178Z,295
2017-07-03T13:22:54.199Z,310
2017-07-03T13:23:54.179Z,360
2017-07-03T13:24:53.868Z,440
2017-07-03T13:25:53.805Z,630
2017-07-03T13:26:53.861Z,980
2017-07-03T13:27:53.551Z,735
2017-07-03T13:28:53.866Z,680
2017-07-03T13:29:54.173Z,590
2017-07-03T13:30:54.172Z,565
2017-07-03T13:31:53.538Z,550
2017-07-03T13:32:53.598Z,525
2017-07-03T13:33:53.858Z,510
2017-07-03T13:34:53.851Z,490
2017-07-03T13:35:54.205Z,495
2017-07-03T13:36:54.180Z,505
2017-07-03T13:37:53.845Z,550
2017-07-03T13:38:54.161Z,510
2017-07-03T13:39:53.533Z,470
2017-07-03T13:40:54.501Z,410
2017-07-03T13:41:54.147Z,380
2017-07-03T13:42:53.519Z,365
2017-07-03T13:43:53.530Z,350
2017-07-03T13:44:54.154Z,340
2017-07-03T13:45:54.141Z,350
2017-07-03T13:46:53.824Z,365
2017-07-03T13:47:54.136Z,400
2017-07-03T13:48:53.505Z,460
2017-07-03T13:49:53.513Z,485
2017-07-03T13:50:53.875Z,500
2017-07-03T13:51:54.342Z,430
2017-07-03T13:52:53.541Z,390
2017-07-03T13:53:53.806Z,365
2017-07-03T13:54:54.108Z,355
2017-07-03T13:55:53.797Z,360
2017-07-03T13:56:54.097Z,355